createdAt,value
2022-12-25T00:02:00.108Z,42.50
2022-12-25T00:04:29.295Z,48.38
2022-12-25T00:06:59.623Z,42.90
2022-12-25T00:09:28.920Z,49.98
2022-12-25T00:11:58.420Z,43.08
2022-12-25T00:14:27.637Z,39.90
2022-12-25T00:16:56.908Z,43.52
2022-12-25T00:19:26.120Z,42.20
2022-12-25T00:21:55.647Z,41.23
2022-12-25T00:24:24.840Z,44.93
2022-12-25T00:26:54.327Z,48.42
2022-12-25T00:29:23.794Z,45.55
2022-12-25T00:31:54.456Z,41.85
2022-12-25T00:34:24.380Z,43.13
2022-12-25T00:36:54.309Z,48.75
2022-12-25T00:39:23.608Z,41.63
2022-12-25T00:42:11.680Z,48.60
2022-12-25T00:44:40.900Z,42.48
2022-12-25T00:47:10.202Z,47.30
2022-12-25T00:49:39.587Z,48.52
2022-12-25T00:52:09.405Z,44.35
2022-12-25T00:54:39.185Z,43.70
2022-12-25T00:57:08.435Z,40.90
2022-12-25T00:59:37.719Z,41.23
2022-12-25T01:02:25.832Z,40.90
2022-12-25T01:04:57.365Z,37.83
2022-12-25T01:07:28.044Z,43.50
2022-12-25T01:10:15.488Z,44.90
2022-12-25T01:12:45.365Z,41.10
2022-12-25T01:15:15.127Z,40.15
2022-12-25T01:17:44.709Z,41.08
2022-12-25T01:20:15.936Z,42.30
2022-12-25T01:22:46.634Z,40.73
2022-12-25T01:25:15.855Z,41.15
2022-12-25T01:27:45.227Z,42.35
2022-12-25T01:30:14.737Z,38.50
2022-12-25T01:32:44.138Z,40.60
2022-12-25T01:35:13.458Z,38.80
2022-12-25T01:37:42.687Z,42.78
2022-12-25T01:40:12.457Z,36.70
2022-12-25T01:42:41.966Z,39.38
2022-12-25T01:45:38.482Z,44.85
2022-12-25T01:48:11.091Z,44.67
2022-12-25T01:50:43.690Z,41.28
2022-12-25T01:55:42.362Z,40.70
2022-12-25T01:58:12.040Z,44.08
2022-12-25T02:00:41.440Z,45.85
2022-12-25T02:03:11.715Z,49.13
2022-12-25T02:05:41.511Z,52.40
2022-12-25T02:08:12.792Z,41.45
2022-12-25T02:10:43.903Z,41.15
2022-12-25T02:13:15.515Z,41.85
2022-12-25T02:16:16.771Z,40.95
2022-12-25T02:18:52.084Z,41.68
2022-12-25T02:21:50.214Z,45.35
2022-12-25T02:24:31.433Z,43.92
2022-12-25T02:27:34.519Z,40.15
2022-12-25T02:30:08.937Z,49.00
2022-12-25T02:32:59.341Z,49.77
2022-12-25T02:35:32.725Z,43.20
2022-12-25T02:38:11.950Z,40.73
2022-12-25T02:40:46.364Z,55.17
2022-12-25T02:43:45.479Z,46.85
2022-12-25T02:46:35.267Z,42.93
2022-12-25T02:49:25.694Z,43.60
2022-12-25T02:52:22.008Z,49.25
2022-12-25T02:55:14.296Z,48.75
2022-12-25T02:58:04.923Z,47.33
2022-12-25T03:00:53.956Z,44.67
2022-12-25T03:03:42.463Z,49.70
2022-12-25T03:06:30.509Z,55.83
2022-12-25T03:09:02.356Z,40.60
2022-12-25T03:11:32.432Z,52.58
2022-12-25T03:14:24.405Z,46.05
2022-12-25T03:16:56.431Z,43.95
2022-12-25T03:19:51.994Z,47.48
2022-12-25T03:22:42.293Z,38.60
2022-12-25T03:25:29.311Z,40.85
2022-12-25T03:27:59.283Z,41.13
2022-12-25T03:30:49.663Z,42.65
2022-12-25T03:33:44.667Z,38.40
2022-12-25T03:36:06.490Z,38.80
2022-12-25T03:38:52.710Z,36.65
2022-12-25T03:42:00.101Z,35.68
2022-12-25T03:44:53.198Z,39.05
2022-12-25T03:51:00.403Z,34.60
2022-12-25T03:53:53.868Z,37.17
2022-12-25T03:56:41.559Z,40.55
2022-12-25T03:59:28.833Z,37.38
2022-12-25T04:02:16.841Z,36.40
2022-12-25T04:05:04.364Z,44.40
2022-12-25T04:07:51.610Z,35.60
2022-12-25T04:10:38.735Z,37.65
2022-12-25T04:13:25.781Z,29.92
2022-12-25T04:16:14.016Z,33.00
2022-12-25T04:19:01.193Z,32.03
2022-12-25T04:21:48.395Z,32.53
2022-12-25T04:24:35.910Z,28.87
2022-12-25T04:27:23.442Z,25.23
2022-12-25T04:30:10.761Z,29.20
2022-12-25T04:32:58.307Z,25.00
2022-12-25T04:35:45.429Z,26.00
2022-12-25T04:38:15.061Z,26.93
2022-12-25T04:40:44.515Z,24.95
2022-12-25T04:43:13.754Z,24.65
2022-12-25T04:45:42.947Z,22.35
2022-12-25T04:48:12.210Z,22.15
2022-12-25T04:50:41.407Z,28.23
2022-12-25T04:53:11.187Z,26.40
2022-12-25T04:55:40.441Z,21.33
2022-12-25T04:58:10.072Z,20.88
2022-12-25T05:00:39.375Z,21.40
2022-12-25T05:03:08.754Z,23.27
2022-12-25T05:05:40.792Z,22.10
2022-12-25T05:08:10.293Z,20.77
2022-12-25T05:10:41.692Z,16.48
2022-12-25T05:13:10.913Z,17.95
2022-12-25T05:15:44.218Z,24.00
2022-12-25T05:18:13.731Z,19.00
2022-12-25T05:20:42.963Z,16.62
2022-12-25T05:23:12.996Z,17.62
2022-12-25T05:25:42.203Z,20.85
2022-12-25T05:28:11.749Z,18.70
2022-12-25T05:30:41.410Z,16.37
2022-12-25T05:33:10.654Z,19.15
2022-12-25T05:35:40.472Z,15.05
2022-12-25T05:38:10.015Z,15.48
2022-12-25T05:40:41.131Z,16.32
2022-12-25T05:43:10.385Z,14.30
2022-12-25T05:45:40.087Z,14.83
2022-12-25T05:48:10.898Z,15.70
2022-12-25T05:50:40.296Z,11.38
2022-12-25T05:53:10.981Z,11.83
2022-12-25T05:55:43.530Z,12.35
2022-12-25T06:00:42.307Z,9.53
2022-12-25T06:03:12.108Z,15.00
2022-12-25T06:05:41.658Z,11.70
2022-12-25T06:08:11.124Z,14.10
2022-12-25T06:10:40.771Z,12.07
2022-12-25T06:13:10.235Z,11.35
2022-12-25T06:15:43.222Z,17.45
2022-12-25T06:18:12.424Z,12.10
2022-12-25T06:20:42.273Z,14.63
2022-12-25T06:23:11.539Z,13.75
2022-12-25T06:25:41.958Z,10.98
2022-12-25T06:28:11.165Z,13.70
2022-12-25T06:30:40.397Z,10.28
2022-12-25T06:33:09.648Z,13.68
2022-12-25T06:35:40.984Z,13.05
2022-12-25T06:38:10.225Z,10.32
2022-12-25T06:40:39.638Z,11.15
2022-12-25T06:43:09.094Z,14.13
2022-12-25T06:45:38.435Z,10.80
2022-12-25T06:48:08.286Z,12.60
2022-12-25T06:50:37.782Z,9.88
2022-12-25T06:53:07.514Z,15.90
2022-12-25T06:55:36.892Z,11.28
2022-12-25T06:58:06.308Z,9.50
2022-12-25T07:00:35.704Z,10.98
2022-12-25T07:03:05.854Z,13.70
2022-12-25T07:05:35.260Z,13.80
2022-12-25T07:08:04.747Z,13.60
2022-12-25T07:10:34.127Z,12.78
2022-12-25T07:13:03.776Z,13.62
2022-12-25T07:15:32.974Z,13.60
2022-12-25T07:18:02.194Z,18.35
2022-12-25T07:20:31.578Z,14.40
2022-12-25T07:23:00.797Z,16.37
2022-12-25T07:25:36.833Z,16.48
2022-12-25T07:28:01.410Z,13.22
2022-12-25T07:30:30.629Z,15.32
2022-12-25T07:33:00.438Z,14.35
2022-12-25T07:35:29.921Z,17.65
2022-12-25T07:37:59.741Z,15.88
2022-12-25T07:40:28.948Z,19.27
2022-12-25T07:42:58.548Z,17.35
2022-12-25T07:45:27.763Z,14.53
2022-12-25T07:48:02.721Z,17.20
2022-12-25T07:50:28.392Z,14.78
2022-12-25T07:52:58.241Z,13.93
2022-12-25T07:55:27.446Z,14.75
2022-12-25T07:57:56.767Z,21.57
2022-12-25T08:00:27.739Z,13.60
2022-12-25T08:02:57.574Z,17.10
2022-12-25T08:05:27.276Z,18.05
2022-12-25T08:07:58.239Z,15.85
2022-12-25T08:10:27.696Z,15.48
2022-12-25T08:12:57.693Z,16.42
2022-12-25T08:15:26.903Z,18.15
2022-12-25T08:17:56.591Z,16.57
2022-12-25T08:20:25.826Z,16.70
2022-12-25T08:22:55.467Z,19.42
2022-12-25T08:25:24.664Z,18.55
2022-12-25T08:27:55.173Z,15.65
2022-12-25T08:30:24.353Z,17.55
2022-12-25T08:32:53.645Z,18.75
2022-12-25T08:35:23.090Z,17.75
2022-12-25T08:37:52.663Z,17.10
2022-12-25T08:40:22.390Z,16.05
2022-12-25T08:42:52.183Z,16.42
2022-12-25T08:45:22.025Z,14.55
2022-12-25T08:47:56.227Z,15.55
2022-12-25T08:50:26.119Z,17.17
2022-12-25T08:52:55.943Z,18.82
2022-12-25T08:55:25.789Z,22.42
2022-12-25T08:57:55.363Z,16.07
2022-12-25T09:00:24.923Z,15.45
2022-12-25T09:02:54.919Z,14.10
2022-12-25T09:05:24.399Z,18.37
2022-12-25T09:07:54.218Z,17.75
2022-12-25T09:10:23.979Z,17.48
2022-12-25T09:12:53.275Z,19.82
2022-12-25T09:15:22.596Z,20.85
2022-12-25T09:17:51.973Z,23.55
2022-12-25T09:20:21.654Z,19.85
2022-12-25T09:22:50.879Z,17.52
2022-12-25T09:25:20.310Z,18.05
2022-12-25T09:27:49.885Z,19.62
2022-12-25T09:30:19.182Z,18.02
2022-12-25T09:32:48.659Z,18.80
2022-12-25T09:35:20.687Z,18.98
2022-12-25T09:37:50.237Z,19.15
2022-12-25T09:40:21.509Z,17.70
2022-12-25T09:42:52.921Z,21.60
2022-12-25T09:45:27.983Z,19.95
2022-12-25T09:47:58.525Z,20.25
2022-12-25T09:50:36.786Z,25.77
2022-12-25T09:53:20.479Z,20.15
2022-12-25T09:56:15.378Z,22.65
2022-12-25T09:58:45.284Z,19.30
2022-12-25T10:01:17.830Z,19.57
2022-12-25T10:04:06.812Z,19.45
2022-12-25T10:06:55.914Z,22.73
2022-12-25T10:09:37.341Z,25.77
2022-12-25T10:12:40.054Z,22.25
2022-12-25T10:15:24.552Z,21.25
2022-12-25T10:18:16.788Z,25.65
2022-12-25T10:20:49.382Z,23.10
2022-12-25T10:28:29.659Z,27.73
2022-12-25T10:31:02.033Z,24.25
2022-12-25T10:33:31.771Z,22.75
2022-12-25T10:36:01.685Z,22.85
2022-12-25T10:38:31.271Z,21.52
2022-12-25T10:41:21.797Z,24.32
2022-12-25T10:43:53.717Z,21.82
2022-12-25T10:46:25.674Z,26.00
2022-12-25T10:48:59.716Z,28.52
2022-12-25T10:51:34.788Z,22.55
2022-12-25T10:54:25.229Z,21.85
2022-12-25T10:56:57.526Z,21.42
2022-12-25T10:59:32.882Z,25.05
2022-12-25T11:02:32.974Z,27.50
2022-12-25T11:05:11.347Z,25.20
2022-12-25T11:07:52.982Z,31.05
2022-12-25T11:10:33.605Z,27.67
2022-12-25T11:13:04.240Z,28.25
2022-12-25T11:15:36.712Z,33.80
2022-12-25T11:18:21.123Z,35.43
2022-12-25T11:20:56.095Z,33.80
2022-12-25T11:23:27.101Z,40.65
2022-12-25T11:26:08.035Z,41.58
2022-12-25T11:28:38.999Z,35.20
2022-12-25T11:31:16.629Z,36.13
2022-12-25T11:33:57.409Z,37.83
2022-12-25T11:36:50.140Z,37.90
2022-12-25T11:39:33.697Z,37.85
2022-12-25T11:42:26.532Z,39.45
2022-12-25T11:45:15.621Z,34.58
2022-12-25T11:47:56.905Z,34.25
2022-12-25T11:50:41.495Z,35.55
2022-12-25T11:53:39.658Z,35.80
2022-12-25T11:56:14.812Z,38.85
2022-12-25T11:58:46.326Z,38.73
2022-12-25T12:01:36.680Z,33.30
2022-12-25T12:04:08.249Z,36.10
2022-12-25T12:06:52.450Z,35.97
2022-12-25T12:09:39.963Z,39.45
2022-12-25T12:12:12.518Z,34.33
2022-12-25T12:17:30.088Z,37.00
2022-12-25T12:19:59.805Z,34.80
2022-12-25T12:22:29.665Z,32.70
2022-12-25T12:25:01.469Z,41.02
2022-12-25T12:27:38.298Z,36.10
2022-12-25T12:30:10.421Z,32.75
2022-12-25T12:32:42.487Z,31.02
2022-12-25T12:35:23.805Z,29.07
2022-12-25T12:37:56.152Z,33.33
2022-12-25T12:40:31.664Z,40.08
2022-12-25T12:43:01.835Z,31.77
2022-12-25T12:45:37.243Z,30.90
2022-12-25T12:48:17.608Z,24.00
2022-12-25T12:50:48.255Z,32.15
2022-12-25T12:53:23.930Z,23.25
2022-12-25T12:55:53.795Z,20.95
2022-12-25T12:58:34.857Z,25.92
2022-12-25T13:01:19.355Z,24.15
2022-12-25T13:04:00.799Z,0.23
2022-12-25T13:06:47.379Z,0.20
2022-12-25T13:09:45.097Z,0.93
2022-12-25T13:12:15.318Z,0.10
2022-12-25T13:14:48.484Z,0.10
2022-12-25T13:17:20.881Z,1.30
2022-12-25T13:19:53.307Z,0.68
2022-12-25T13:22:28.846Z,0.35
2022-12-25T13:25:00.587Z,0.33
2022-12-25T13:27:32.709Z,0.63
2022-12-25T13:30:05.091Z,0.30
2022-12-25T13:32:35.128Z,0.20
2022-12-25T13:35:04.478Z,0.75
2022-12-25T13:37:34.200Z,1.17
2022-12-25T13:40:06.329Z,1.22
2022-12-25T13:42:37.660Z,0.50
2022-12-25T13:45:10.086Z,0.60
2022-12-25T13:47:43.065Z,2.17
2022-12-25T13:50:30.482Z,0.20
2022-12-25T13:53:14.251Z,0.50
2022-12-25T13:55:45.316Z,0.88
2022-12-25T13:58:17.967Z,0.50
2022-12-25T14:03:25.967Z,0.20
2022-12-25T14:06:00.655Z,3.37
2022-12-25T14:08:34.439Z,0.30
2022-12-25T14:11:05.726Z,1.02
2022-12-25T14:13:38.314Z,1.10
2022-12-25T14:18:36.371Z,2.72
2022-12-25T14:21:17.676Z,0.47
2022-12-25T14:23:48.932Z,0.53
2022-12-25T14:26:27.290Z,0.17
2022-12-25T14:29:12.632Z,1.85
2022-12-25T14:31:40.712Z,0.37
2022-12-25T14:34:21.920Z,0.37
2022-12-25T14:36:52.783Z,0.53
2022-12-25T14:39:36.614Z,1.42
2022-12-25T14:42:15.283Z,0.10
2022-12-25T14:44:44.665Z,5.78
2022-12-25T14:47:18.767Z,1.95
2022-12-25T14:49:48.874Z,1.57
2022-12-25T14:52:24.158Z,0.45
2022-12-25T14:54:59.012Z,1.60
2022-12-25T14:57:31.049Z,0.20
2022-12-25T15:00:03.425Z,0.98
2022-12-25T15:02:36.084Z,0.45
2022-12-25T15:05:06.497Z,0.60
2022-12-25T15:07:35.815Z,0.37
2022-12-25T15:10:57.681Z,1.12
2022-12-25T15:12:39.095Z,3.47
2022-12-25T15:15:09.289Z,0.75
2022-12-25T15:17:38.831Z,1.80
2022-12-25T15:20:10.903Z,1.82
2022-12-25T15:23:02.796Z,0.15
2022-12-25T15:25:15.087Z,0.10
2022-12-25T15:30:14.171Z,0.80
2022-12-25T15:32:43.507Z,0.68
2022-12-25T15:35:23.466Z,1.00
2022-12-25T15:37:52.671Z,0.72
2022-12-25T15:40:22.127Z,0.25
2022-12-25T15:42:51.418Z,0.33
2022-12-25T15:45:26.666Z,0.50
2022-12-25T15:47:56.058Z,0.75
2022-12-25T15:50:25.343Z,1.30
2022-12-25T15:52:54.740Z,1.07
2022-12-25T15:55:24.579Z,0.40
2022-12-25T15:57:54.606Z,1.87
2022-12-25T16:00:25.854Z,1.07
2022-12-25T16:02:55.563Z,1.47
2022-12-25T16:05:25.116Z,1.40
2022-12-25T16:07:54.835Z,0.45
2022-12-25T16:10:24.034Z,2.08
2022-12-25T16:12:53.512Z,0.55
2022-12-25T16:15:22.708Z,0.10
2022-12-25T16:17:51.953Z,0.72
2022-12-25T16:20:21.152Z,1.75
2022-12-25T16:22:50.609Z,1.32
2022-12-25T16:25:20.685Z,4.03
2022-12-25T16:27:49.938Z,2.58
2022-12-25T16:30:19.965Z,7.28
2022-12-25T16:32:50.884Z,3.08
2022-12-25T16:35:20.456Z,4.78
2022-12-25T16:37:49.654Z,3.47
2022-12-25T16:40:19.101Z,0.50
2022-12-25T16:42:48.598Z,1.60
2022-12-25T16:45:18.328Z,1.85
2022-12-25T16:47:47.704Z,1.40
2022-12-25T16:50:17.432Z,0.98
2022-12-25T16:52:46.643Z,2.47
2022-12-25T16:55:16.138Z,0.82
2022-12-25T16:57:47.012Z,4.58
2022-12-25T17:00:17.273Z,1.62
2022-12-25T17:02:46.665Z,1.65
2022-12-25T17:05:16.240Z,0.82
2022-12-25T17:07:45.668Z,1.55
2022-12-25T17:10:15.541Z,0.70
2022-12-25T17:12:45.811Z,3.25
2022-12-25T17:15:15.334Z,5.17
2022-12-25T17:17:44.534Z,1.80
2022-12-25T17:20:14.214Z,2.08
2022-12-25T17:22:43.553Z,2.95
2022-12-25T17:25:13.209Z,1.65
2022-12-25T17:27:42.624Z,1.30
2022-12-25T17:30:12.456Z,1.55
2022-12-25T17:32:41.663Z,1.37
2022-12-25T17:35:11.451Z,2.15
2022-12-25T17:37:40.987Z,1.82
2022-12-25T17:40:11.070Z,1.52
2022-12-25T17:42:40.591Z,1.90
2022-12-25T17:45:10.631Z,0.60
2022-12-25T17:47:39.855Z,1.02
2022-12-25T17:50:09.784Z,0.65
2022-12-25T17:52:38.989Z,1.12
2022-12-25T17:55:09.178Z,0.98
2022-12-25T17:57:41.098Z,2.80
2022-12-25T18:00:10.345Z,3.75
2022-12-25T18:02:40.092Z,2.50
2022-12-25T18:05:10.567Z,1.75
2022-12-25T18:07:39.765Z,5.15
2022-12-25T18:10:09.741Z,2.00
2022-12-25T18:12:39.001Z,1.57
2022-12-25T18:15:09.309Z,2.02
2022-12-25T18:17:39.376Z,0.70
2022-12-25T18:20:09.612Z,4.40
2022-12-25T18:22:39.116Z,2.52
2022-12-25T18:25:09.064Z,1.12
2022-12-25T18:27:38.594Z,3.47
2022-12-25T18:30:09.121Z,1.45
2022-12-25T18:32:38.522Z,2.12
2022-12-25T18:35:08.948Z,2.20
2022-12-25T18:37:40.276Z,1.25
2022-12-25T18:40:10.384Z,1.07
2022-12-25T18:42:39.730Z,7.47
2022-12-25T18:45:11.324Z,0.70
2022-12-25T18:47:40.643Z,2.37
2022-12-25T18:50:10.714Z,3.62
2022-12-25T18:52:49.020Z,0.98
2022-12-25T18:55:13.272Z,1.10
2022-12-25T18:57:42.599Z,2.95
2022-12-25T19:00:12.511Z,1.55
2022-12-25T19:02:42.223Z,0.75
2022-12-25T19:05:11.953Z,1.12
2022-12-25T19:07:41.183Z,2.25
2022-12-25T19:10:11.781Z,0.93
2022-12-25T19:12:41.006Z,0.68
2022-12-25T19:15:11.920Z,0.65
2022-12-25T19:17:41.157Z,0.65
2022-12-25T19:20:11.236Z,0.62
2022-12-25T19:22:40.475Z,2.83
2022-12-25T19:25:10.393Z,0.37
2022-12-25T19:27:39.613Z,1.00
2022-12-25T19:30:11.078Z,1.15
2022-12-25T19:32:40.296Z,0.33
2022-12-25T19:35:10.265Z,0.72
2022-12-25T19:37:39.667Z,1.45
2022-12-25T19:40:09.923Z,2.35
2022-12-25T19:42:39.249Z,2.08
2022-12-25T19:45:09.658Z,0.60
2022-12-25T19:47:38.946Z,0.53
2022-12-25T19:50:09.240Z,4.75
2022-12-25T19:52:38.468Z,1.02
2022-12-25T19:55:08.306Z,3.62
2022-12-25T19:57:37.535Z,2.92
2022-12-25T20:00:08.448Z,2.15
2022-12-25T20:05:09.947Z,0.93
2022-12-25T20:07:39.446Z,0.28
2022-12-25T20:10:09.941Z,3.62
2022-12-25T20:12:39.178Z,1.30
2022-12-25T20:15:09.359Z,0.95
2022-12-25T20:17:38.868Z,1.40
2022-12-25T20:20:09.345Z,1.07
2022-12-25T20:22:39.858Z,0.85
2022-12-25T20:25:11.167Z,0.78
2022-12-25T20:27:40.546Z,2.02
2022-12-25T20:30:10.400Z,3.30
2022-12-25T20:32:42.547Z,0.70
2022-12-25T20:35:17.305Z,6.22
2022-12-25T20:37:46.721Z,1.32
2022-12-25T20:40:16.181Z,2.83
2022-12-25T20:42:45.463Z,1.47
2022-12-25T20:45:14.822Z,2.27
2022-12-25T20:47:44.042Z,1.40
2022-12-25T20:50:13.547Z,1.12
2022-12-25T20:52:42.768Z,1.37
2022-12-25T20:55:14.158Z,0.30
2022-12-25T20:57:44.091Z,1.22
2022-12-25T21:00:14.248Z,0.50
2022-12-25T21:02:44.403Z,2.45
2022-12-25T21:05:13.945Z,0.98
2022-12-25T21:07:43.319Z,0.95
2022-12-25T21:10:13.156Z,2.20
2022-12-25T21:12:43.110Z,0.85
2022-12-25T21:15:15.835Z,2.92
2022-12-25T21:17:44.512Z,1.80
2022-12-25T21:20:13.902Z,1.67
2022-12-25T21:22:43.124Z,1.55
2022-12-25T21:25:12.329Z,3.42
2022-12-25T21:27:41.703Z,2.10
2022-12-25T21:30:14.082Z,2.77
2022-12-25T21:33:00.162Z,1.67
2022-12-25T21:35:29.392Z,0.62
2022-12-25T21:37:58.602Z,1.87
2022-12-25T21:40:28.233Z,1.62
2022-12-25T21:42:57.634Z,2.00
2022-12-25T21:45:27.058Z,1.50
2022-12-25T21:48:01.606Z,2.00
2022-12-25T21:50:45.462Z,1.25
2022-12-25T21:53:18.201Z,1.22
2022-12-25T21:56:02.552Z,4.03
2022-12-25T21:58:32.091Z,1.90
2022-12-25T22:01:05.171Z,3.70
2022-12-25T22:03:34.731Z,0.50
2022-12-25T22:06:22.055Z,0.93
2022-12-25T22:08:51.648Z,1.27
2022-12-25T22:11:39.196Z,0.40
2022-12-25T22:14:52.615Z,0.37
2022-12-25T22:17:22.135Z,0.45
2022-12-25T22:19:51.743Z,1.60
2022-12-25T22:22:25.779Z,8.90
2022-12-25T22:24:57.546Z,2.80
2022-12-25T22:27:28.993Z,1.32
2022-12-25T22:29:59.040Z,0.72
2022-12-25T22:32:28.828Z,1.37
2022-12-25T22:34:58.543Z,1.52
2022-12-25T22:37:29.348Z,1.85
2022-12-25T22:40:00.926Z,0.53
2022-12-25T22:42:30.218Z,1.20
2022-12-25T22:44:59.456Z,0.95
2022-12-25T22:47:29.096Z,1.75
2022-12-25T22:49:58.465Z,1.05
2022-12-25T22:52:27.671Z,0.93
2022-12-25T22:54:56.897Z,1.05
2022-12-25T22:57:26.791Z,2.10
2022-12-25T22:59:56.181Z,1.85
2022-12-25T23:02:26.297Z,0.85
2022-12-25T23:04:55.930Z,2.90
2022-12-25T23:07:25.628Z,7.70
2022-12-25T23:09:54.865Z,0.90
2022-12-25T23:12:41.983Z,2.62
2022-12-25T23:15:11.504Z,1.65
2022-12-25T23:17:58.623Z,5.85
2022-12-25T23:20:45.681Z,1.65
2022-12-25T23:23:34.784Z,1.87
2022-12-25T23:26:08.341Z,0.72
2022-12-25T23:28:57.839Z,0.57
2022-12-25T23:31:36.527Z,3.92
2022-12-25T23:34:07.796Z,1.57
2022-12-25T23:36:37.371Z,0.75
2022-12-25T23:39:10.132Z,1.92
2022-12-25T23:41:38.087Z,1.15
2022-12-25T23:44:07.992Z,1.47
2022-12-25T23:46:37.616Z,2.33
2022-12-25T23:49:07.331Z,0.93
2022-12-25T23:51:39.489Z,2.35
2022-12-25T23:54:08.879Z,2.98
2022-12-25T23:56:38.708Z,1.75
2022-12-25T23:59:08.819Z,2.20
